sensor_id;sensor_type;location;lat;lon;timestamp;P1;durP1;ratioP1;P2;durP2;ratioP2
26201;SDS011;13944;28.562;77.188;2022-07-06T00:00:54;63.22;;;49.22;;
26201;SDS011;13944;28.562;77.188;2022-07-06T00:03:21;55.95;;;46.50;;
26201;SDS011;13944;28.562;77.188;2022-07-06T00:05:48;59.78;;;47.42;;
26201;SDS011;13944;28.562;77.188;2022-07-06T00:08:15;56.83;;;45.85;;
26201;SDS011;13944;28.562;77.188;2022-07-06T00:10:42;57.20;;;46.63;;
26201;SDS011;13944;28.562;77.188;2022-07-06T00:13:09;66.60;;;48.28;;
26201;SDS011;13944;28.562;77.188;2022-07-06T00:15:36;57.45;;;43.78;;
26201;SDS011;13944;28.562;77.188;2022-07-06T00:18:03;60.20;;;46.10;;
26201;SDS011;13944;28.562;77.188;2022-07-06T00:20:30;56.20;;;44.85;;
26201;SDS011;13944;28.562;77.188;2022-07-06T00:22:57;61.75;;;50.20;;
26201;SDS011;13944;28.562;77.188;2022-07-06T00:25:24;58.97;;;48.30;;
26201;SDS011;13944;28.562;77.188;2022-07-06T00:27:51;59.35;;;48.08;;
26201;SDS011;13944;28.562;77.188;2022-07-06T00:30:19;64.65;;;50.58;;
26201;SDS011;13944;28.562;77.188;2022-07-06T00:32:46;66.20;;;49.08;;
26201;SDS011;13944;28.562;77.188;2022-07-06T00:35:13;62.30;;;47.67;;
26201;SDS011;13944;28.562;77.188;2022-07-06T00:37:40;61.55;;;48.88;;
26201;SDS011;13944;28.562;77.188;2022-07-06T00:40:07;127.22;;;53.35;;
26201;SDS011;13944;28.562;77.188;2022-07-06T00:42:41;101.68;;;51.55;;
26201;SDS011;13944;28.562;77.188;2022-07-06T00:45:09;86.38;;;49.22;;
26201;SDS011;13944;28.562;77.188;2022-07-06T00:47:37;78.72;;;48.47;;
26201;SDS011;13944;28.562;77.188;2022-07-06T00:50:04;71.32;;;50.78;;
26201;SDS011;13944;28.562;77.188;2022-07-06T00:52:57;68.35;;;48.63;;
26201;SDS011;13944;28.562;77.188;2022-07-06T00:55:27;76.28;;;53.45;;
26201;SDS011;13944;28.562;77.188;2022-07-06T00:57:54;90.10;;;55.30;;
26201;SDS011;13944;28.562;77.188;2022-07-06T01:00:25;91.20;;;53.92;;
26201;SDS011;13944;28.562;77.188;2022-07-06T01:02:53;90.82;;;55.38;;
26201;SDS011;13944;28.562;77.188;2022-07-06T01:05:21;69.65;;;51.53;;
26201;SDS011;13944;28.562;77.188;2022-07-06T01:07:48;83.50;;;53.47;;
26201;SDS011;13944;28.562;77.188;2022-07-06T01:10:16;76.03;;;51.83;;
26201;SDS011;13944;28.562;77.188;2022-07-06T01:12:44;66.45;;;49.35;;
26201;SDS011;13944;28.562;77.188;2022-07-06T01:15:13;69.72;;;48.40;;
26201;SDS011;13944;28.562;77.188;2022-07-06T01:17:41;65.90;;;48.47;;
26201;SDS011;13944;28.562;77.188;2022-07-06T01:22:36;63.97;;;48.83;;
26201;SDS011;13944;28.562;77.188;2022-07-06T01:25:04;64.78;;;47.80;;
26201;SDS011;13944;28.562;77.188;2022-07-06T01:27:34;59.05;;;44.95;;
26201;SDS011;13944;28.562;77.188;2022-07-06T01:30:05;60.15;;;44.22;;
26201;SDS011;13944;28.562;77.188;2022-07-06T01:32:33;73.13;;;45.20;;
26201;SDS011;13944;28.562;77.188;2022-07-06T01:35:00;59.97;;;42.08;;
26201;SDS011;13944;28.562;77.188;2022-07-06T01:37:31;65.13;;;44.50;;
26201;SDS011;13944;28.562;77.188;2022-07-06T01:39:59;57.88;;;43.00;;
26201;SDS011;13944;28.562;77.188;2022-07-06T01:42:26;63.85;;;43.50;;
26201;SDS011;13944;28.562;77.188;2022-07-06T01:44:54;63.22;;;46.35;;
26201;SDS011;13944;28.562;77.188;2022-07-06T01:47:21;55.60;;;43.65;;
26201;SDS011;13944;28.562;77.188;2022-07-06T01:49:48;57.95;;;46.25;;
26201;SDS011;13944;28.562;77.188;2022-07-06T01:52:16;59.03;;;45.33;;
26201;SDS011;13944;28.562;77.188;2022-07-06T01:54:43;62.78;;;43.17;;
26201;SDS011;13944;28.562;77.188;2022-07-06T01:57:10;56.67;;;44.33;;
26201;SDS011;13944;28.562;77.188;2022-07-06T01:59:37;57.05;;;44.10;;
26201;SDS011;13944;28.562;77.188;2022-07-06T02:02:04;57.70;;;45.03;;
26201;SDS011;13944;28.562;77.188;2022-07-06T02:04:31;66.32;;;44.75;;
26201;SDS011;13944;28.562;77.188;2022-07-06T02:06:58;60.05;;;43.45;;
26201;SDS011;13944;28.562;77.188;2022-07-06T02:09:27;56.22;;;43.67;;
26201;SDS011;13944;28.562;77.188;2022-07-06T02:11:54;58.13;;;44.47;;
26201;SDS011;13944;28.562;77.188;2022-07-06T02:14:21;54.70;;;44.33;;
26201;SDS011;13944;28.562;77.188;2022-07-06T02:16:48;56.50;;;44.38;;
26201;SDS011;13944;28.562;77.188;2022-07-06T02:19:15;57.40;;;44.75;;
26201;SDS011;13944;28.562;77.188;2022-07-06T02:21:42;61.03;;;43.40;;
26201;SDS011;13944;28.562;77.188;2022-07-06T02:24:09;64.28;;;44.88;;
26201;SDS011;13944;28.562;77.188;2022-07-06T02:26:36;68.10;;;45.95;;
26201;SDS011;13944;28.562;77.188;2022-07-06T02:29:03;60.03;;;44.63;;
26201;SDS011;13944;28.562;77.188;2022-07-06T02:31:30;55.78;;;42.75;;
26201;SDS011;13944;28.562;77.188;2022-07-06T02:33:57;58.92;;;45.03;;
26201;SDS011;13944;28.562;77.188;2022-07-06T02:36:24;56.03;;;44.33;;
26201;SDS011;13944;28.562;77.188;2022-07-06T02:38:51;55.90;;;43.97;;
26201;SDS011;13944;28.562;77.188;2022-07-06T02:41:18;58.42;;;43.17;;
26201;SDS011;13944;28.562;77.188;2022-07-06T02:43:46;59.40;;;44.38;;
26201;SDS011;13944;28.562;77.188;2022-07-06T02:46:13;54.35;;;43.72;;
26201;SDS011;13944;28.562;77.188;2022-07-06T02:48:40;55.45;;;44.83;;
26201;SDS011;13944;28.562;77.188;2022-07-06T02:51:07;57.75;;;43.63;;
26201;SDS011;13944;28.562;77.188;2022-07-06T02:53:34;57.72;;;43.60;;
26201;SDS011;13944;28.562;77.188;2022-07-06T02:56:01;54.35;;;43.50;;
26201;SDS011;13944;28.562;77.188;2022-07-06T02:58:28;56.35;;;45.63;;
26201;SDS011;13944;28.562;77.188;2022-07-06T03:00:55;59.50;;;45.25;;
26201;SDS011;13944;28.562;77.188;2022-07-06T03:03:22;59.40;;;46.10;;
26201;SDS011;13944;28.562;77.188;2022-07-06T03:05:50;57.80;;;44.80;;
26201;SDS011;13944;28.562;77.188;2022-07-06T03:08:18;53.55;;;44.78;;
26201;SDS011;13944;28.562;77.188;2022-07-06T03:10:45;53.20;;;43.50;;
26201;SDS011;13944;28.562;77.188;2022-07-06T03:13:12;58.60;;;43.65;;
26201;SDS011;13944;28.562;77.188;2022-07-06T03:15:39;54.63;;;42.53;;
26201;SDS011;13944;28.562;77.188;2022-07-06T03:18:06;55.33;;;45.22;;
26201;SDS011;13944;28.562;77.188;2022-07-06T03:20:34;54.40;;;44.63;;
26201;SDS011;13944;28.562;77.188;2022-07-06T03:23:01;52.40;;;45.30;;
26201;SDS011;13944;28.562;77.188;2022-07-06T03:25:28;54.22;;;44.25;;
26201;SDS011;13944;28.562;77.188;2022-07-06T03:27:55;58.22;;;47.95;;
26201;SDS011;13944;28.562;77.188;2022-07-06T03:30:22;70.82;;;57.15;;
26201;SDS011;13944;28.562;77.188;2022-07-06T03:32:49;66.95;;;51.03;;
26201;SDS011;13944;28.562;77.188;2022-07-06T03:35:17;115.68;;;59.55;;
26201;SDS011;13944;28.562;77.188;2022-07-06T03:37:44;97.70;;;52.40;;
26201;SDS011;13944;28.562;77.188;2022-07-06T03:40:11;87.95;;;54.17;;
26201;SDS011;13944;28.562;77.188;2022-07-06T03:42:39;81.43;;;56.13;;
26201;SDS011;13944;28.562;77.188;2022-07-06T03:45:06;77.60;;;56.17;;
26201;SDS011;13944;28.562;77.188;2022-07-06T03:47:34;73.78;;;54.03;;
26201;SDS011;13944;28.562;77.188;2022-07-06T03:50:01;62.10;;;51.83;;
26201;SDS011;13944;28.562;77.188;2022-07-06T03:52:28;62.58;;;49.83;;
26201;SDS011;13944;28.562;77.188;2022-07-06T03:54:55;59.05;;;47.75;;
26201;SDS011;13944;28.562;77.188;2022-07-06T03:57:22;54.25;;;47.28;;
26201;SDS011;13944;28.562;77.188;2022-07-06T03:59:51;59.35;;;46.85;;
26201;SDS011;13944;28.562;77.188;2022-07-06T04:02:18;65.70;;;50.10;;
26201;SDS011;13944;28.562;77.188;2022-07-06T04:04:47;58.85;;;47.00;;
26201;SDS011;13944;28.562;77.188;2022-07-06T04:07:17;58.00;;;45.40;;
26201;SDS011;13944;28.562;77.188;2022-07-06T04:09:45;56.63;;;46.45;;
26201;SDS011;13944;28.562;77.188;2022-07-06T04:12:12;65.07;;;49.97;;
26201;SDS011;13944;28.562;77.188;2022-07-06T04:14:39;59.67;;;49.28;;
26201;SDS011;13944;28.562;77.188;2022-07-06T04:17:06;59.17;;;48.72;;
26201;SDS011;13944;28.562;77.188;2022-07-06T04:19:51;59.10;;;47.47;;
26201;SDS011;13944;28.562;77.188;2022-07-06T04:22:18;57.88;;;49.30;;
26201;SDS011;13944;28.562;77.188;2022-07-06T04:24:45;56.45;;;48.38;;
26201;SDS011;13944;28.562;77.188;2022-07-06T04:27:12;57.38;;;48.42;;
26201;SDS011;13944;28.562;77.188;2022-07-06T04:29:39;57.65;;;46.83;;
26201;SDS011;13944;28.562;77.188;2022-07-06T04:32:06;59.35;;;47.30;;
26201;SDS011;13944;28.562;77.188;2022-07-06T04:34:33;59.42;;;46.75;;
26201;SDS011;13944;28.562;77.188;2022-07-06T04:37:00;58.38;;;46.28;;
26201;SDS011;13944;28.562;77.188;2022-07-06T04:39:27;65.25;;;47.85;;
26201;SDS011;13944;28.562;77.188;2022-07-06T04:41:57;64.18;;;49.20;;
26201;SDS011;13944;28.562;77.188;2022-07-06T04:44:24;63.13;;;49.00;;
26201;SDS011;13944;28.562;77.188;2022-07-06T04:46:51;60.40;;;47.45;;
26201;SDS011;13944;28.562;77.188;2022-07-06T04:49:18;57.63;;;45.83;;
26201;SDS011;13944;28.562;77.188;2022-07-06T04:51:45;57.13;;;46.55;;
26201;SDS011;13944;28.562;77.188;2022-07-06T04:54:12;64.03;;;45.58;;
26201;SDS011;13944;28.562;77.188;2022-07-06T04:56:40;59.67;;;45.53;;
26201;SDS011;13944;28.562;77.188;2022-07-06T04:59:07;55.80;;;44.72;;
26201;SDS011;13944;28.562;77.188;2022-07-06T05:01:34;53.33;;;45.67;;
26201;SDS011;13944;28.562;77.188;2022-07-06T05:04:01;52.88;;;45.38;;
26201;SDS011;13944;28.562;77.188;2022-07-06T05:06:28;54.42;;;48.15;;
26201;SDS011;13944;28.562;77.188;2022-07-06T05:08:55;59.35;;;46.15;;
26201;SDS011;13944;28.562;77.188;2022-07-06T05:11:25;66.28;;;48.85;;
26201;SDS011;13944;28.562;77.188;2022-07-06T05:13:52;54.58;;;46.47;;
26201;SDS011;13944;28.562;77.188;2022-07-06T05:16:20;55.30;;;46.72;;
26201;SDS011;13944;28.562;77.188;2022-07-06T05:18:47;53.63;;;44.97;;
26201;SDS011;13944;28.562;77.188;2022-07-06T05:21:14;56.55;;;46.15;;
26201;SDS011;13944;28.562;77.188;2022-07-06T05:23:41;55.90;;;46.50;;
26201;SDS011;13944;28.562;77.188;2022-07-06T05:26:08;54.97;;;46.28;;
26201;SDS011;13944;28.562;77.188;2022-07-06T05:28:35;54.38;;;44.85;;
26201;SDS011;13944;28.562;77.188;2022-07-06T05:31:02;50.00;;;43.78;;
26201;SDS011;13944;28.562;77.188;2022-07-06T05:33:30;51.47;;;42.58;;
26201;SDS011;13944;28.562;77.188;2022-07-06T05:35:57;54.33;;;44.30;;
26201;SDS011;13944;28.562;77.188;2022-07-06T05:38:24;47.90;;;41.40;;
26201;SDS011;13944;28.562;77.188;2022-07-06T05:40:51;46.95;;;40.63;;
26201;SDS011;13944;28.562;77.188;2022-07-06T05:43:18;48.47;;;39.33;;
26201;SDS011;13944;28.562;77.188;2022-07-06T05:45:45;46.72;;;38.95;;
26201;SDS011;13944;28.562;77.188;2022-07-06T05:48:12;44.03;;;38.47;;
26201;SDS011;13944;28.562;77.188;2022-07-06T05:50:57;48.05;;;39.28;;
26201;SDS011;13944;28.562;77.188;2022-07-06T05:53:24;47.15;;;37.97;;
26201;SDS011;13944;28.562;77.188;2022-07-06T05:55:52;44.45;;;39.33;;
26201;SDS011;13944;28.562;77.188;2022-07-06T05:58:19;47.92;;;39.03;;
26201;SDS011;13944;28.562;77.188;2022-07-06T06:00:46;46.90;;;38.17;;
26201;SDS011;13944;28.562;77.188;2022-07-06T06:03:13;52.60;;;39.58;;
26201;SDS011;13944;28.562;77.188;2022-07-06T06:05:40;51.00;;;40.83;;
26201;SDS011;13944;28.562;77.188;2022-07-06T06:08:08;54.38;;;41.30;;
26201;SDS011;13944;28.562;77.188;2022-07-06T06:10:35;44.38;;;39.08;;
26201;SDS011;13944;28.562;77.188;2022-07-06T06:13:02;48.03;;;40.08;;
26201;SDS011;13944;28.562;77.188;2022-07-06T06:15:29;49.03;;;40.15;;
26201;SDS011;13944;28.562;77.188;2022-07-06T06:17:56;47.45;;;39.63;;
26201;SDS011;13944;28.562;77.188;2022-07-06T06:20:23;49.38;;;39.78;;
26201;SDS011;13944;28.562;77.188;2022-07-06T06:22:55;47.70;;;40.30;;
26201;SDS011;13944;28.562;77.188;2022-07-06T06:25:35;47.63;;;39.85;;
26201;SDS011;13944;28.562;77.188;2022-07-06T06:28:03;45.10;;;38.08;;
26201;SDS011;13944;28.562;77.188;2022-07-06T06:30:31;49.88;;;40.83;;
26201;SDS011;13944;28.562;77.188;2022-07-06T06:33:09;44.97;;;38.40;;
26201;SDS011;13944;28.562;77.188;2022-07-06T06:35:43;42.67;;;38.05;;
26201;SDS011;13944;28.562;77.188;2022-07-06T06:38:10;42.58;;;37.38;;
26201;SDS011;13944;28.562;77.188;2022-07-06T06:40:37;43.63;;;37.55;;
26201;SDS011;13944;28.562;77.188;2022-07-06T06:43:05;45.55;;;36.15;;
26201;SDS011;13944;28.562;77.188;2022-07-06T06:45:32;48.40;;;37.60;;
26201;SDS011;13944;28.562;77.188;2022-07-06T06:47:59;44.60;;;39.05;;
26201;SDS011;13944;28.562;77.188;2022-07-06T06:50:29;46.40;;;40.00;;
26201;SDS011;13944;28.562;77.188;2022-07-06T06:52:56;50.67;;;45.03;;
26201;SDS011;13944;28.562;77.188;2022-07-06T06:55:41;47.58;;;40.58;;
26201;SDS011;13944;28.562;77.188;2022-07-06T06:58:12;45.25;;;38.65;;
26201;SDS011;13944;28.562;77.188;2022-07-06T07:00:42;42.88;;;37.80;;
26201;SDS011;13944;28.562;77.188;2022-07-06T07:03:12;42.10;;;37.10;;
26201;SDS011;13944;28.562;77.188;2022-07-06T07:05:39;43.22;;;37.70;;
26201;SDS011;13944;28.562;77.188;2022-07-06T07:08:09;45.63;;;36.50;;
26201;SDS011;13944;28.562;77.188;2022-07-06T07:10:39;42.15;;;37.50;;
26201;SDS011;13944;28.562;77.188;2022-07-06T07:13:06;47.72;;;37.03;;
26201;SDS011;13944;28.562;77.188;2022-07-06T07:15:33;41.85;;;37.30;;
26201;SDS011;13944;28.562;77.188;2022-07-06T07:18:00;45.15;;;37.17;;
26201;SDS011;13944;28.562;77.188;2022-07-06T07:20:27;48.83;;;40.80;;
26201;SDS011;13944;28.562;77.188;2022-07-06T07:22:56;47.63;;;40.10;;
26201;SDS011;13944;28.562;77.188;2022-07-06T07:25:23;47.10;;;41.17;;
26201;SDS011;13944;28.562;77.188;2022-07-06T07:27:50;47.05;;;39.85;;
26201;SDS011;13944;28.562;77.188;2022-07-06T07:30:23;49.65;;;43.88;;
26201;SDS011;13944;28.562;77.188;2022-07-06T07:32:53;48.75;;;41.30;;
26201;SDS011;13944;28.562;77.188;2022-07-06T07:35:21;48.30;;;39.45;;
26201;SDS011;13944;28.562;77.188;2022-07-06T07:37:49;47.42;;;41.17;;
26201;SDS011;13944;28.562;77.188;2022-07-06T07:40:16;47.25;;;38.95;;
26201;SDS011;13944;28.562;77.188;2022-07-06T07:42:43;47.90;;;38.35;;
26201;SDS011;13944;28.562;77.188;2022-07-06T07:45:11;45.10;;;39.90;;
26201;SDS011;13944;28.562;77.188;2022-07-06T07:47:38;45.20;;;38.78;;
26201;SDS011;13944;28.562;77.188;2022-07-06T07:50:05;42.30;;;37.67;;
26201;SDS011;13944;28.562;77.188;2022-07-06T07:52:32;45.50;;;39.95;;
26201;SDS011;13944;28.562;77.188;2022-07-06T07:55:00;45.00;;;39.33;;
26201;SDS011;13944;28.562;77.188;2022-07-06T07:57:27;48.17;;;39.20;;
26201;SDS011;13944;28.562;77.188;2022-07-06T07:59:54;46.78;;;38.90;;
26201;SDS011;13944;28.562;77.188;2022-07-06T08:02:21;44.65;;;38.92;;
26201;SDS011;13944;28.562;77.188;2022-07-06T08:04:48;44.58;;;37.42;;
26201;SDS011;13944;28.562;77.188;2022-07-06T08:07:15;46.75;;;36.08;;
26201;SDS011;13944;28.562;77.188;2022-07-06T08:09:42;41.85;;;37.30;;
26201;SDS011;13944;28.562;77.188;2022-07-06T08:12:09;46.47;;;38.42;;
26201;SDS011;13944;28.562;77.188;2022-07-06T08:14:37;42.45;;;36.28;;
26201;SDS011;13944;28.562;77.188;2022-07-06T08:17:04;40.47;;;35.88;;
26201;SDS011;13944;28.562;77.188;2022-07-06T08:19:31;44.67;;;34.17;;
26201;SDS011;13944;28.562;77.188;2022-07-06T08:21:58;47.22;;;33.45;;
26201;SDS011;13944;28.562;77.188;2022-07-06T08:24:25;49.05;;;35.15;;
26201;SDS011;13944;28.562;77.188;2022-07-06T08:26:52;55.17;;;32.45;;
26201;SDS011;13944;28.562;77.188;2022-07-06T08:29:23;43.38;;;31.55;;
26201;SDS011;13944;28.562;77.188;2022-07-06T08:31:50;44.83;;;32.67;;
26201;SDS011;13944;28.562;77.188;2022-07-06T08:34:17;41.55;;;30.63;;
26201;SDS011;13944;28.562;77.188;2022-07-06T08:36:45;45.65;;;32.42;;
26201;SDS011;13944;28.562;77.188;2022-07-06T08:39:15;41.85;;;31.95;;
26201;SDS011;13944;28.562;77.188;2022-07-06T08:41:43;42.13;;;33.17;;
26201;SDS011;13944;28.562;77.188;2022-07-06T08:44:13;45.83;;;33.58;;
26201;SDS011;13944;28.562;77.188;2022-07-06T08:46:41;41.38;;;34.17;;
26201;SDS011;13944;28.562;77.188;2022-07-06T08:49:08;45.47;;;32.75;;
26201;SDS011;13944;28.562;77.188;2022-07-06T08:51:35;44.05;;;34.13;;
26201;SDS011;13944;28.562;77.188;2022-07-06T08:54:03;42.17;;;32.58;;
26201;SDS011;13944;28.562;77.188;2022-07-06T08:56:30;46.90;;;34.53;;
26201;SDS011;13944;28.562;77.188;2022-07-06T08:58:57;44.08;;;33.72;;
26201;SDS011;13944;28.562;77.188;2022-07-06T09:01:25;41.90;;;32.70;;
26201;SDS011;13944;28.562;77.188;2022-07-06T09:03:54;43.58;;;33.85;;
26201;SDS011;13944;28.562;77.188;2022-07-06T09:06:25;46.95;;;34.55;;
26201;SDS011;13944;28.562;77.188;2022-07-06T09:08:54;55.67;;;37.22;;
26201;SDS011;13944;28.562;77.188;2022-07-06T09:11:22;52.58;;;36.47;;
26201;SDS011;13944;28.562;77.188;2022-07-06T09:13:50;53.65;;;36.58;;
26201;SDS011;13944;28.562;77.188;2022-07-06T09:16:17;45.90;;;34.72;;
26201;SDS011;13944;28.562;77.188;2022-07-06T09:18:44;45.30;;;34.53;;
26201;SDS011;13944;28.562;77.188;2022-07-06T09:21:16;41.70;;;34.60;;
26201;SDS011;13944;28.562;77.188;2022-07-06T09:23:54;42.00;;;34.13;;
26201;SDS011;13944;28.562;77.188;2022-07-06T09:26:21;47.47;;;35.28;;
26201;SDS011;13944;28.562;77.188;2022-07-06T09:28:49;39.13;;;33.20;;
26201;SDS011;13944;28.562;77.188;2022-07-06T09:31:16;38.92;;;33.63;;
26201;SDS011;13944;28.562;77.188;2022-07-06T09:33:53;37.38;;;32.00;;
26201;SDS011;13944;28.562;77.188;2022-07-06T09:36:53;39.50;;;33.15;;
26201;SDS011;13944;28.562;77.188;2022-07-06T09:39:17;38.85;;;32.83;;
26201;SDS011;13944;28.562;77.188;2022-07-06T09:41:46;37.72;;;33.00;;
26201;SDS011;13944;28.562;77.188;2022-07-06T09:44:17;38.92;;;32.28;;
26201;SDS011;13944;28.562;77.188;2022-07-06T09:46:45;36.35;;;32.53;;
26201;SDS011;13944;28.562;77.188;2022-07-06T09:49:23;41.10;;;33.13;;
26201;SDS011;13944;28.562;77.188;2022-07-06T09:51:51;36.85;;;31.83;;
26201;SDS011;13944;28.562;77.188;2022-07-06T09:54:18;41.38;;;32.95;;
26201;SDS011;13944;28.562;77.188;2022-07-06T09:56:46;41.47;;;33.83;;
26201;SDS011;13944;28.562;77.188;2022-07-06T09:59:18;38.67;;;32.22;;
26201;SDS011;13944;28.562;77.188;2022-07-06T10:01:46;40.95;;;34.28;;
26201;SDS011;13944;28.562;77.188;2022-07-06T10:04:14;43.25;;;34.13;;
26201;SDS011;13944;28.562;77.188;2022-07-06T10:06:44;42.45;;;34.13;;
26201;SDS011;13944;28.562;77.188;2022-07-06T10:09:11;45.92;;;36.85;;
26201;SDS011;13944;28.562;77.188;2022-07-06T10:11:39;40.08;;;35.60;;
26201;SDS011;13944;28.562;77.188;2022-07-06T10:14:07;45.58;;;35.75;;
26201;SDS011;13944;28.562;77.188;2022-07-06T10:16:38;44.28;;;35.60;;
26201;SDS011;13944;28.562;77.188;2022-07-06T10:19:05;41.92;;;35.03;;
26201;SDS011;13944;28.562;77.188;2022-07-06T10:21:36;48.30;;;36.30;;
26201;SDS011;13944;28.562;77.188;2022-07-06T10:24:04;41.45;;;35.55;;
26201;SDS011;13944;28.562;77.188;2022-07-06T10:26:32;40.20;;;35.30;;
26201;SDS011;13944;28.562;77.188;2022-07-06T10:29:00;39.58;;;33.78;;
26201;SDS011;13944;28.562;77.188;2022-07-06T10:31:32;38.78;;;31.98;;
26201;SDS011;13944;28.562;77.188;2022-07-06T10:34:00;38.65;;;32.80;;
26201;SDS011;13944;28.562;77.188;2022-07-06T10:36:28;40.50;;;31.30;;
26201;SDS011;13944;28.562;77.188;2022-07-06T10:38:56;39.58;;;31.45;;
26201;SDS011;13944;28.562;77.188;2022-07-06T10:41:33;39.72;;;33.55;;
26201;SDS011;13944;28.562;77.188;2022-07-06T10:44:15;38.97;;;34.42;;
26201;SDS011;13944;28.562;77.188;2022-07-06T10:46:49;43.30;;;34.38;;
26201;SDS011;13944;28.562;77.188;2022-07-06T10:49:17;36.85;;;32.42;;
26201;SDS011;13944;28.562;77.188;2022-07-06T10:51:44;34.97;;;30.10;;
26201;SDS011;13944;28.562;77.188;2022-07-06T10:54:13;33.78;;;29.67;;
26201;SDS011;13944;28.562;77.188;2022-07-06T10:56:49;31.90;;;27.73;;
26201;SDS011;13944;28.562;77.188;2022-07-06T10:59:22;34.45;;;28.88;;
26201;SDS011;13944;28.562;77.188;2022-07-06T11:04:36;32.60;;;28.33;;
26201;SDS011;13944;28.562;77.188;2022-07-06T11:07:11;35.85;;;29.17;;
26201;SDS011;13944;28.562;77.188;2022-07-06T11:09:38;33.05;;;29.45;;
26201;SDS011;13944;28.562;77.188;2022-07-06T11:14:40;36.67;;;29.50;;
26201;SDS011;13944;28.562;77.188;2022-07-06T11:17:08;34.20;;;28.40;;
26201;SDS011;13944;28.562;77.188;2022-07-06T11:19:36;36.05;;;28.75;;
26201;SDS011;13944;28.562;77.188;2022-07-06T11:22:07;33.88;;;27.58;;
26201;SDS011;13944;28.562;77.188;2022-07-06T11:24:35;35.90;;;26.52;;
26201;SDS011;13944;28.562;77.188;2022-07-06T11:27:03;35.35;;;27.13;;
26201;SDS011;13944;28.562;77.188;2022-07-06T11:29:35;33.72;;;29.55;;
26201;SDS011;13944;28.562;77.188;2022-07-06T11:32:04;32.28;;;28.02;;
26201;SDS011;13944;28.562;77.188;2022-07-06T11:34:35;31.65;;;27.70;;
26201;SDS011;13944;28.562;77.188;2022-07-06T11:37:04;35.40;;;27.95;;
26201;SDS011;13944;28.562;77.188;2022-07-06T11:39:38;33.22;;;27.77;;
26201;SDS011;13944;28.562;77.188;2022-07-06T11:42:06;39.92;;;28.92;;
26201;SDS011;13944;28.562;77.188;2022-07-06T11:44:33;38.75;;;29.27;;
26201;SDS011;13944;28.562;77.188;2022-07-06T11:47:01;36.47;;;29.00;;
26201;SDS011;13944;28.562;77.188;2022-07-06T11:49:32;34.10;;;28.70;;
26201;SDS011;13944;28.562;77.188;2022-07-06T11:52:06;33.97;;;28.65;;
26201;SDS011;13944;28.562;77.188;2022-07-06T11:54:33;35.88;;;29.13;;
26201;SDS011;13944;28.562;77.188;2022-07-06T11:57:00;37.83;;;29.70;;
26201;SDS011;13944;28.562;77.188;2022-07-06T11:59:31;41.47;;;30.95;;
26201;SDS011;13944;28.562;77.188;2022-07-06T12:04:25;36.78;;;30.40;;
26201;SDS011;13944;28.562;77.188;2022-07-06T12:06:52;37.63;;;30.98;;
26201;SDS011;13944;28.562;77.188;2022-07-06T12:09:19;36.50;;;30.23;;
26201;SDS011;13944;28.562;77.188;2022-07-06T12:11:47;38.42;;;31.48;;
26201;SDS011;13944;28.562;77.188;2022-07-06T12:14:19;37.65;;;31.42;;
26201;SDS011;13944;28.562;77.188;2022-07-06T12:16:48;35.03;;;30.58;;
26201;SDS011;13944;28.562;77.188;2022-07-06T12:19:15;38.30;;;30.63;;
26201;SDS011;13944;28.562;77.188;2022-07-06T12:21:43;35.78;;;30.10;;
26201;SDS011;13944;28.562;77.188;2022-07-06T12:24:16;40.05;;;30.95;;
26201;SDS011;13944;28.562;77.188;2022-07-06T12:26:43;34.92;;;30.33;;
26201;SDS011;13944;28.562;77.188;2022-07-06T12:29:11;42.47;;;30.98;;
26201;SDS011;13944;28.562;77.188;2022-07-06T12:31:39;39.00;;;30.17;;
26201;SDS011;13944;28.562;77.188;2022-07-06T12:34:29;39.35;;;31.58;;
26201;SDS011;13944;28.562;77.188;2022-07-06T12:36:56;40.42;;;31.95;;
26201;SDS011;13944;28.562;77.188;2022-07-06T12:39:25;40.25;;;31.08;;
26201;SDS011;13944;28.562;77.188;2022-07-06T12:41:53;39.40;;;32.72;;
26201;SDS011;13944;28.562;77.188;2022-07-06T12:44:25;39.58;;;32.10;;
26201;SDS011;13944;28.562;77.188;2022-07-06T12:47:03;39.85;;;34.20;;
26201;SDS011;13944;28.562;77.188;2022-07-06T12:49:30;36.17;;;32.25;;
26201;SDS011;13944;28.562;77.188;2022-07-06T12:54:34;42.78;;;34.28;;
26201;SDS011;13944;28.562;77.188;2022-07-06T12:59:30;41.40;;;34.65;;
26201;SDS011;13944;28.562;77.188;2022-07-06T13:01:57;44.15;;;35.88;;
26201;SDS011;13944;28.562;77.188;2022-07-06T13:04:25;40.17;;;35.05;;
26201;SDS011;13944;28.562;77.188;2022-07-06T13:06:53;44.53;;;37.50;;
26201;SDS011;13944;28.562;77.188;2022-07-06T13:09:20;41.35;;;36.03;;
26201;SDS011;13944;28.562;77.188;2022-07-06T13:11:48;44.53;;;36.55;;
26201;SDS011;13944;28.562;77.188;2022-07-06T13:14:15;43.15;;;36.65;;
26201;SDS011;13944;28.562;77.188;2022-07-06T13:16:43;50.45;;;39.13;;
26201;SDS011;13944;28.562;77.188;2022-07-06T13:19:10;43.58;;;37.08;;
26201;SDS011;13944;28.562;77.188;2022-07-06T13:21:37;49.22;;;38.40;;
26201;SDS011;13944;28.562;77.188;2022-07-06T13:24:05;48.15;;;37.47;;
26201;SDS011;13944;28.562;77.188;2022-07-06T13:26:32;47.88;;;38.67;;
26201;SDS011;13944;28.562;77.188;2022-07-06T13:29:00;51.35;;;40.40;;
26201;SDS011;13944;28.562;77.188;2022-07-06T13:31:27;47.90;;;39.45;;
26201;SDS011;13944;28.562;77.188;2022-07-06T13:33:54;53.28;;;40.05;;
26201;SDS011;13944;28.562;77.188;2022-07-06T13:36:22;48.60;;;40.25;;
26201;SDS011;13944;28.562;77.188;2022-07-06T13:38:49;48.20;;;40.08;;
26201;SDS011;13944;28.562;77.188;2022-07-06T13:41:16;51.65;;;43.92;;
26201;SDS011;13944;28.562;77.188;2022-07-06T13:43:43;49.97;;;40.97;;
26201;SDS011;13944;28.562;77.188;2022-07-06T13:46:11;53.72;;;42.20;;
26201;SDS011;13944;28.562;77.188;2022-07-06T13:48:38;51.65;;;43.88;;
26201;SDS011;13944;28.562;77.188;2022-07-06T13:51:05;54.92;;;45.20;;
26201;SDS011;13944;28.562;77.188;2022-07-06T13:53:32;47.78;;;42.10;;
26201;SDS011;13944;28.562;77.188;2022-07-06T13:55:59;52.50;;;44.53;;
26201;SDS011;13944;28.562;77.188;2022-07-06T13:58:26;53.65;;;45.25;;
26201;SDS011;13944;28.562;77.188;2022-07-06T14:00:53;53.22;;;44.42;;
26201;SDS011;13944;28.562;77.188;2022-07-06T14:03:21;55.17;;;45.72;;
26201;SDS011;13944;28.562;77.188;2022-07-06T14:05:53;53.58;;;45.20;;
26201;SDS011;13944;28.562;77.188;2022-07-06T14:08:20;60.38;;;48.33;;
26201;SDS011;13944;28.562;77.188;2022-07-06T14:10:47;52.03;;;45.72;;
26201;SDS011;13944;28.562;77.188;2022-07-06T14:13:14;58.15;;;48.08;;
26201;SDS011;13944;28.562;77.188;2022-07-06T14:15:41;56.35;;;48.40;;
26201;SDS011;13944;28.562;77.188;2022-07-06T14:18:09;55.03;;;47.03;;
26201;SDS011;13944;28.562;77.188;2022-07-06T14:20:36;54.53;;;46.22;;
26201;SDS011;13944;28.562;77.188;2022-07-06T14:23:03;54.47;;;45.92;;
26201;SDS011;13944;28.562;77.188;2022-07-06T14:25:30;57.50;;;47.53;;
26201;SDS011;13944;28.562;77.188;2022-07-06T14:27:57;54.45;;;46.42;;
26201;SDS011;13944;28.562;77.188;2022-07-06T14:30:25;58.22;;;48.28;;